Time;durP1;ratioP1;P1;durP2;ratioP2;P2;SDS_P1;SDS_P2;PMS_P1;PMS_P2;Temp;Humidity;BMP_temperature;BMP_pressure;BME280_temperature;BME280_humidity;BME280_pressure;Samples;Min_cycle;Max_cycle;Signal;HPM_P1;HPM_P2
2021/12/31 00:01:24;;;;;;;1.40;1.30;;;;;;;;;;5091825;28;20759;-74
2021/12/31 00:03:52;;;;;;;1.43;1.10;;;;;;;;;;5091729;28;20422;-74
2021/12/31 00:06:18;;;;;;;1.23;1.17;;;;;;;;;;5093036;28;20436;-74
2021/12/31 00:08:44;;;;;;;1.43;1.33;;;;;;;;;;5092957;28;20443;-74
2021/12/31 00:11:10;;;;;;;3.53;1.67;;;;;;;;;;5091724;28;20443;-73
2021/12/31 00:13:37;;;;;;;2.30;1.53;;;;;;;;;;5091828;28;20992;-74
2021/12/31 00:16:03;;;;;;;2.10;1.50;;;;;;;;;;5096775;28;20471;-73
2021/12/31 00:18:29;;;;;;;1.70;1.60;;;;;;;;;;5096773;28;20442;-73
2021/12/31 00:20:56;;;;;;;2.10;1.43;;;;;;;;;;5096794;28;20827;-74
2021/12/31 00:23:25;;;;;;;1.20;1.10;;;;;;;;;;5096978;28;20411;-73
2021/12/31 00:25:51;;;;;;;6.10;1.57;;;;;;;;;;5096609;28;20439;-73
2021/12/31 00:28:17;;;;;;;1.53;1.43;;;;;;;;;;5096648;28;20423;-72
2021/12/31 00:30:43;;;;;;;1.30;1.20;;;;;;;;;;5096505;28;20415;-73
2021/12/31 00:33:09;;;;;;;2.07;1.13;;;;;;;;;;5095454;28;20403;-74
2021/12/31 00:35:37;;;;;;;1.47;1.37;;;;;;;;;;5096283;28;20493;-73
2021/12/31 00:38:04;;;;;;;1.40;1.10;;;;;;;;;;5095103;28;20408;-73
2021/12/31 00:40:30;;;;;;;2.90;1.40;;;;;;;;;;5095065;28;20416;-73
2021/12/31 00:42:56;;;;;;;1.20;1.10;;;;;;;;;;5096415;28;20415;-74
2021/12/31 00:45:27;;;;;;;1.97;1.50;;;;;;;;;;5095272;28;20933;-73
2021/12/31 00:47:53;;;;;;;1.40;1.30;;;;;;;;;;5096464;28;20411;-73
2021/12/31 00:50:19;;;;;;;1.17;1.03;;;;;;;;;;5096135;28;20407;-74
2021/12/31 00:52:46;;;;;;;1.37;1.27;;;;;;;;;;5096200;28;20410;-74
2021/12/31 00:55:12;;;;;;;1.77;1.50;;;;;;;;;;5094671;28;20471;-73
2021/12/31 00:57:38;;;;;;;3.50;1.30;;;;;;;;;;5094796;28;20415;-73
2021/12/31 01:00:05;;;;;;;1.20;1.10;;;;;;;;;;5095861;28;20888;-74
2021/12/31 01:02:31;;;;;;;2.60;1.30;;;;;;;;;;5096103;28;20503;-74
2021/12/31 01:04:58;;;;;;;1.37;1.27;;;;;;;;;;5095970;28;20647;-74
2021/12/31 01:07:24;;;;;;;3.10;2.07;;;;;;;;;;5095881;28;20494;-74
2021/12/31 01:09:50;;;;;;;1.70;1.60;;;;;;;;;;5095811;28;20477;-74
2021/12/31 01:12:16;;;;;;;2.70;1.47;;;;;;;;;;5094643;28;20449;-74
2021/12/31 01:15:00;;;;;;;1.30;1.20;;;;;;;;;;5095670;28;20489;-74
2021/12/31 01:20:22;;;;;;;1.53;1.20;;;;;;;;;;5058126;28;20446;-73
2021/12/31 01:22:48;;;;;;;1.73;1.30;;;;;;;;;;5095689;28;20394;-74
2021/12/31 01:25:14;;;;;;;3.37;1.30;;;;;;;;;;5094662;28;20403;-73
2021/12/31 01:27:41;;;;;;;1.60;1.50;;;;;;;;;;5095316;28;20439;-74
2021/12/31 01:30:08;;;;;;;1.40;1.27;;;;;;;;;;5094177;28;20469;-73
2021/12/31 01:32:34;;;;;;;1.57;1.27;;;;;;;;;;5094209;28;20769;-74
2021/12/31 01:35:01;;;;;;;1.77;1.50;;;;;;;;;;5095085;28;20452;-74
2021/12/31 01:37:27;;;;;;;1.37;1.27;;;;;;;;;;5095442;28;20484;-74
2021/12/31 01:39:53;;;;;;;3.00;1.60;;;;;;;;;;5095373;28;20437;-74
2021/12/31 01:42:27;;;;;;;3.00;1.57;;;;;;;;;;5095342;28;20887;-74
2021/12/31 01:44:59;;;;;;;1.13;1.10;;;;;;;;;;5095318;28;20403;-74
2021/12/31 01:47:34;;;;;;;1.10;1.03;;;;;;;;;;5095290;28;20391;-74
2021/12/31 01:50:05;;;;;;;1.33;1.23;;;;;;;;;;5093888;28;20399;-73
2021/12/31 01:52:31;;;;;;;1.30;1.20;;;;;;;;;;5095129;28;20404;-74
2021/12/31 01:54:57;;;;;;;1.50;1.40;;;;;;;;;;5094989;28;20471;-74
2021/12/31 01:57:24;;;;;;;1.33;1.23;;;;;;;;;;5094946;28;20491;-73
2021/12/31 01:59:50;;;;;;;1.50;1.40;;;;;;;;;;5093411;28;21043;-74
2021/12/31 02:02:17;;;;;;;3.90;1.20;;;;;;;;;;5093608;28;20507;-74
2021/12/31 02:04:44;;;;;;;1.77;1.63;;;;;;;;;;5094912;28;20416;-73
2021/12/31 02:07:10;;;;;;;1.90;1.30;;;;;;;;;;5094868;28;20400;-74
2021/12/31 02:09:44;;;;;;;1.50;1.40;;;;;;;;;;5094672;28;20396;-74
2021/12/31 02:12:11;;;;;;;1.30;1.20;;;;;;;;;;5093604;28;20415;-75
2021/12/31 02:14:37;;;;;;;3.33;1.60;;;;;;;;;;5093211;28;20463;-74
2021/12/31 02:17:07;;;;;;;2.90;1.57;;;;;;;;;;5094710;28;20883;-74
2021/12/31 02:19:33;;;;;;;1.90;1.70;;;;;;;;;;5094660;28;20761;-74
2021/12/31 02:22:00;;;;;;;1.20;1.10;;;;;;;;;;5094536;28;20549;-74
2021/12/31 02:24:26;;;;;;;2.93;1.57;;;;;;;;;;5094614;28;20411;-74
2021/12/31 02:26:52;;;;;;;1.83;1.73;;;;;;;;;;5093172;28;20400;-73
2021/12/31 02:29:19;;;;;;;4.30;1.50;;;;;;;;;;5093132;28;20939;-73
2021/12/31 02:31:45;;;;;;;1.67;1.40;;;;;;;;;;5093091;28;20403;-74
2021/12/31 02:34:11;;;;;;;1.50;1.40;;;;;;;;;;5092844;28;20420;-74
2021/12/31 02:36:37;;;;;;;3.70;1.40;;;;;;;;;;5092614;28;20921;-72
2021/12/31 02:39:04;;;;;;;1.57;1.43;;;;;;;;;;5094126;28;20478;-73
2021/12/31 02:41:30;;;;;;;1.70;1.27;;;;;;;;;;5094258;28;20420;-74
2021/12/31 02:43:56;;;;;;;1.80;1.17;;;;;;;;;;5094099;28;20407;-74
2021/12/31 02:46:22;;;;;;;2.20;1.63;;;;;;;;;;5094069;28;20414;-74
2021/12/31 02:48:55;;;;;;;1.43;1.33;;;;;;;;;;5092772;28;20906;-74
2021/12/31 02:51:22;;;;;;;1.37;1.17;;;;;;;;;;5093929;28;20443;-73
2021/12/31 02:53:51;;;;;;;1.87;1.30;;;;;;;;;;5094009;28;20708;-73
2021/12/31 02:56:18;;;;;;;7.23;1.40;;;;;;;;;;5092451;28;20475;-72
2021/12/31 02:58:44;;;;;;;2.40;1.20;;;;;;;;;;5093773;28;20600;-73
2021/12/31 03:01:12;;;;;;;3.23;1.40;;;;;;;;;;5093783;28;20416;-72
2021/12/31 03:03:38;;;;;;;3.07;1.50;;;;;;;;;;5093707;28;21056;-73
2021/12/31 03:06:04;;;;;;;1.47;1.37;;;;;;;;;;5093752;28;20407;-74
2021/12/31 03:08:32;;;;;;;2.80;1.63;;;;;;;;;;5093663;28;20422;-74
2021/12/31 03:10:59;;;;;;;1.40;1.23;;;;;;;;;;5093630;28;20416;-70
2021/12/31 03:13:25;;;;;;;2.10;1.20;;;;;;;;;;5093675;28;20404;-71
2021/12/31 03:15:52;;;;;;;1.40;1.30;;;;;;;;;;5092200;28;20471;-70
2021/12/31 03:18:19;;;;;;;1.43;1.27;;;;;;;;;;5093585;28;20410;-70
2021/12/31 03:20:57;;;;;;;1.40;1.30;;;;;;;;;;5093507;28;20408;-71
2021/12/31 03:23:24;;;;;;;1.50;1.40;;;;;;;;;;5093599;28;20414;-71
2021/12/31 03:25:50;;;;;;;3.97;1.47;;;;;;;;;;5093456;28;20408;-71
2021/12/31 03:28:16;;;;;;;1.77;1.40;;;;;;;;;;5093502;28;20404;-70
2021/12/31 03:30:42;;;;;;;1.57;1.30;;;;;;;;;;5093379;28;20419;-70
2021/12/31 03:33:08;;;;;;;1.80;1.47;;;;;;;;;;5091765;28;20408;-72
2021/12/31 03:35:34;;;;;;;2.13;1.40;;;;;;;;;;5093188;28;20976;-73
2021/12/31 03:38:00;;;;;;;2.70;1.30;;;;;;;;;;5093321;28;20403;-74
2021/12/31 03:40:27;;;;;;;2.03;1.40;;;;;;;;;;5093270;28;20411;-74
2021/12/31 03:42:53;;;;;;;2.90;1.50;;;;;;;;;;5092043;28;20415;-73
2021/12/31 03:45:19;;;;;;;1.57;1.37;;;;;;;;;;5092443;28;20477;-72
2021/12/31 03:47:45;;;;;;;4.17;1.57;;;;;;;;;;5093151;28;20402;-73
2021/12/31 03:50:11;;;;;;;4.30;1.43;;;;;;;;;;5096074;28;20439;-73
2021/12/31 03:52:38;;;;;;;1.43;1.33;;;;;;;;;;5097320;28;20403;-74
2021/12/31 03:55:05;;;;;;;1.30;1.20;;;;;;;;;;5096091;28;20526;-73
2021/12/31 03:57:31;;;;;;;1.30;1.20;;;;;;;;;;5097329;28;20423;-73
2021/12/31 03:59:57;;;;;;;2.40;1.30;;;;;;;;;;5096983;28;20954;-73
2021/12/31 04:02:23;;;;;;;2.77;1.60;;;;;;;;;;5097187;28;20894;-73
2021/12/31 04:04:49;;;;;;;2.60;1.40;;;;;;;;;;5097184;28;20531;-73
2021/12/31 04:07:15;;;;;;;1.30;1.20;;;;;;;;;;5095899;28;20416;-71
2021/12/31 04:09:41;;;;;;;3.90;1.60;;;;;;;;;;5096902;28;20882;-71
2021/12/31 04:12:08;;;;;;;1.77;1.47;;;;;;;;;;5096945;28;20460;-71
2021/12/31 04:14:34;;;;;;;1.70;1.27;;;;;;;;;;5096798;28;20938;-71
2021/12/31 04:17:00;;;;;;;1.37;1.27;;;;;;;;;;5096975;28;20775;-71
2021/12/31 04:19:26;;;;;;;3.67;1.97;;;;;;;;;;5096923;28;20878;-71
2021/12/31 04:21:52;;;;;;;1.83;1.40;;;;;;;;;;5095443;28;20979;-73
2021/12/31 04:27:03;;;;;;;2.23;1.57;;;;;;;;;;5096835;28;20529;-73
2021/12/31 04:29:29;;;;;;;2.03;1.80;;;;;;;;;;5096657;28;20408;-73
2021/12/31 04:31:55;;;;;;;1.40;1.30;;;;;;;;;;5096687;28;20763;-71
2021/12/31 04:34:21;;;;;;;1.50;1.37;;;;;;;;;;5096388;28;20473;-73
2021/12/31 04:36:47;;;;;;;1.40;1.30;;;;;;;;;;5096650;28;20423;-74
2021/12/31 04:39:13;;;;;;;1.40;1.30;;;;;;;;;;5096453;28;20407;-73
2021/12/31 04:41:39;;;;;;;1.50;1.40;;;;;;;;;;5095095;28;20425;-73
2021/12/31 04:44:05;;;;;;;1.60;1.50;;;;;;;;;;5096461;28;20445;-74
2021/12/31 04:46:31;;;;;;;2.00;1.80;;;;;;;;;;5096412;28;20404;-72
2021/12/31 04:48:57;;;;;;;1.27;1.17;;;;;;;;;;5096322;28;20423;-74
2021/12/31 04:51:23;;;;;;;2.60;1.80;;;;;;;;;;5096258;28;20465;-73
2021/12/31 04:53:49;;;;;;;1.63;1.53;;;;;;;;;;5096246;28;20411;-74
2021/12/31 04:56:15;;;;;;;1.53;1.40;;;;;;;;;;5094824;28;20506;-73
2021/12/31 04:58:41;;;;;;;2.17;1.57;;;;;;;;;;5095891;28;20470;-73
2021/12/31 05:01:07;;;;;;;1.20;1.10;;;;;;;;;;5094521;28;20752;-74
2021/12/31 05:03:33;;;;;;;3.90;2.53;;;;;;;;;;5096107;28;20415;-71
2021/12/31 05:05:59;;;;;;;1.77;1.50;;;;;;;;;;5094832;28;20426;-72
2021/12/31 05:08:25;;;;;;;2.13;1.40;;;;;;;;;;5095940;28;20898;-72
2021/12/31 05:10:51;;;;;;;1.47;1.37;;;;;;;;;;5095957;28;20450;-72
2021/12/31 05:13:19;;;;;;;1.60;1.50;;;;;;;;;;5094531;28;20415;-72
2021/12/31 05:15:47;;;;;;;1.73;1.30;;;;;;;;;;5094487;28;20843;-72
2021/12/31 05:18:13;;;;;;;1.73;1.47;;;;;;;;;;5095850;28;20404;-72
2021/12/31 05:20:39;;;;;;;3.20;1.60;;;;;;;;;;5095680;28;20412;-72
2021/12/31 05:23:05;;;;;;;2.83;1.40;;;;;;;;;;5095721;28;20456;-71
2021/12/31 05:25:31;;;;;;;2.07;1.17;;;;;;;;;;5095678;28;20399;-73
2021/12/31 05:27:57;;;;;;;1.90;1.13;;;;;;;;;;5095578;28;20400;-72
2021/12/31 05:30:25;;;;;;;2.37;1.50;;;;;;;;;;5094348;28;20422;-72
2021/12/31 05:32:51;;;;;;;1.60;1.50;;;;;;;;;;5095439;28;20439;-72
2021/12/31 05:35:17;;;;;;;1.70;1.60;;;;;;;;;;5095200;28;20540;-72
2021/12/31 05:37:43;;;;;;;1.73;1.63;;;;;;;;;;5094097;28;20911;-73
2021/12/31 05:40:10;;;;;;;2.10;2.00;;;;;;;;;;5095369;28;20419;-73
2021/12/31 05:42:36;;;;;;;2.50;1.57;;;;;;;;;;5094075;28;20766;-73
2021/12/31 05:45:02;;;;;;;2.67;1.40;;;;;;;;;;5095248;28;20952;-73
2021/12/31 05:47:29;;;;;;;2.80;1.30;;;;;;;;;;5094002;28;20420;-72
2021/12/31 05:49:55;;;;;;;1.70;1.47;;;;;;;;;;5095181;28;20410;-72
2021/12/31 05:52:21;;;;;;;6.23;1.40;;;;;;;;;;5093934;28;20554;-72
2021/12/31 05:54:47;;;;;;;2.33;1.30;;;;;;;;;;5094923;28;20478;-72
2021/12/31 05:57:13;;;;;;;1.83;1.37;;;;;;;;;;5094960;28;20423;-74
2021/12/31 05:59:39;;;;;;;2.43;1.30;;;;;;;;;;5094811;28;20526;-72
2021/12/31 06:02:05;;;;;;;2.00;1.30;;;;;;;;;;5095078;28;20499;-72
2021/12/31 06:04:31;;;;;;;1.60;1.50;;;;;;;;;;5094794;28;20519;-73
2021/12/31 06:06:57;;;;;;;1.57;1.47;;;;;;;;;;5094785;28;20408;-73
2021/12/31 06:09:23;;;;;;;1.77;1.20;;;;;;;;;;5094731;28;20416;-72
2021/12/31 06:11:49;;;;;;;2.87;1.70;;;;;;;;;;5093993;28;20404;-73
2021/12/31 06:14:15;;;;;;;3.23;1.60;;;;;;;;;;5093325;28;20449;-75
2021/12/31 06:16:42;;;;;;;1.70;1.60;;;;;;;;;;5094626;28;20402;-74
2021/12/31 06:19:12;;;;;;;2.00;1.70;;;;;;;;;;5094664;28;20437;-73
2021/12/31 06:21:39;;;;;;;1.87;1.50;;;;;;;;;;5094548;28;20474;-74
2021/12/31 06:24:06;;;;;;;2.30;1.27;;;;;;;;;;5094564;28;20400;-74
2021/12/31 06:26:32;;;;;;;1.53;1.30;;;;;;;;;;5094518;28;20404;-74
2021/12/31 06:28:58;;;;;;;2.00;1.30;;;;;;;;;;5094439;28;20392;-74
2021/12/31 06:31:24;;;;;;;2.33;1.47;;;;;;;;;;5094402;28;20970;-73
2021/12/31 06:33:50;;;;;;;3.43;1.60;;;;;;;;;;5094041;28;20423;-74
2021/12/31 06:36:17;;;;;;;1.50;1.40;;;;;;;;;;5094333;28;20467;-74
2021/12/31 06:38:43;;;;;;;2.00;1.40;;;;;;;;;;5092957;28;20886;-74
2021/12/31 06:41:09;;;;;;;3.00;1.83;;;;;;;;;;5094193;28;20588;-74
2021/12/31 06:43:35;;;;;;;1.60;1.50;;;;;;;;;;5094095;28;20392;-75
2021/12/31 06:46:01;;;;;;;1.90;1.70;;;;;;;;;;5094039;28;20414;-74
2021/12/31 06:48:27;;;;;;;1.50;1.40;;;;;;;;;;5094117;28;20400;-74
2021/12/31 06:50:53;;;;;;;1.53;1.30;;;;;;;;;;5092681;28;20431;-74
2021/12/31 06:53:19;;;;;;;2.07;1.30;;;;;;;;;;5093801;28;20403;-75
2021/12/31 06:55:45;;;;;;;2.47;1.33;;;;;;;;;;5093849;28;20495;-74
2021/12/31 06:58:11;;;;;;;2.40;1.30;;;;;;;;;;5093669;28;20455;-74
2021/12/31 07:00:37;;;;;;;1.50;1.33;;;;;;;;;;5093913;28;20400;-73
2021/12/31 07:03:08;;;;;;;1.87;1.67;;;;;;;;;;5093815;28;20866;-73
2021/12/31 07:05:34;;;;;;;1.47;1.37;;;;;;;;;;5093701;28;20447;-73
2021/12/31 07:08:00;;;;;;;0.90;0.90;;;;;;;;;;5093665;28;20416;-72
2021/12/31 07:10:27;;;;;;;1.50;1.40;;;;;;;;;;5092470;28;20910;-73
2021/12/31 07:12:57;;;;;;;1.53;1.27;;;;;;;;;;5093674;28;20502;-74
2021/12/31 07:15:23;;;;;;;1.37;1.17;;;;;;;;;;5093605;28;20462;-73
2021/12/31 07:17:49;;;;;;;1.83;1.73;;;;;;;;;;5093481;28;20396;-73
2021/12/31 07:20:15;;;;;;;1.93;1.53;;;;;;;;;;5093566;28;20392;-72
2021/12/31 07:22:41;;;;;;;1.97;1.27;;;;;;;;;;5092230;28;20408;-73
2021/12/31 07:25:07;;;;;;;1.50;1.40;;;;;;;;;;5093474;28;20408;-72
2021/12/31 07:27:33;;;;;;;1.43;1.33;;;;;;;;;;5093372;28;20492;-73
2021/12/31 07:29:59;;;;;;;2.67;1.70;;;;;;;;;;5092035;28;20497;-73
2021/12/31 07:32:26;;;;;;;2.40;1.77;;;;;;;;;;5092196;28;20411;-73
2021/12/31 07:34:53;;;;;;;1.73;1.60;;;;;;;;;;5093139;28;20459;-71
2021/12/31 07:37:19;;;;;;;1.63;1.53;;;;;;;;;;5093350;28;20511;-72
2021/12/31 07:39:48;;;;;;;2.40;2.20;;;;;;;;;;5093198;28;20445;-74
2021/12/31 07:42:14;;;;;;;2.80;1.73;;;;;;;;;;5093407;28;20400;-72
2021/12/31 07:44:40;;;;;;;2.50;2.30;;;;;;;;;;5093363;28;20402;-73
2021/12/31 07:47:06;;;;;;;2.20;1.90;;;;;;;;;;5093256;28;20884;-73
2021/12/31 07:49:32;;;;;;;2.13;1.93;;;;;;;;;;5093224;28;20411;-73
2021/12/31 07:51:58;;;;;;;3.70;2.50;;;;;;;;;;5093150;28;20403;-73
2021/12/31 07:54:24;;;;;;;5.80;2.40;;;;;;;;;;5093095;28;20407;-73
2021/12/31 07:56:51;;;;;;;2.53;2.13;;;;;;;;;;5092989;28;20479;-74
2021/12/31 07:59:16;;;;;;;2.83;2.50;;;;;;;;;;5092726;28;20459;-73
2021/12/31 08:01:42;;;;;;;3.07;2.57;;;;;;;;;;5093215;28;20415;-71
2021/12/31 08:04:08;;;;;;;4.30;2.60;;;;;;;;;;5092930;28;20423;-72
2021/12/31 08:06:34;;;;;;;3.03;2.63;;;;;;;;;;5091785;28;20779;-72
2021/12/31 08:09:00;;;;;;;3.70;2.87;;;;;;;;;;5093007;28;20408;-72
2021/12/31 08:11:26;;;;;;;2.80;2.33;;;;;;;;;;5091784;28;20412;-71
2021/12/31 08:13:52;;;;;;;2.80;2.50;;;;;;;;;;5091621;28;20891;-73
2021/12/31 08:16:18;;;;;;;3.00;2.80;;;;;;;;;;5091545;28;20558;-73
2021/12/31 08:18:44;;;;;;;2.63;2.40;;;;;;;;;;5092879;28;20875;-72
2021/12/31 08:21:10;;;;;;;4.40;3.63;;;;;;;;;;5092858;28;20415;-70
2021/12/31 08:23:36;;;;;;;3.40;2.67;;;;;;;;;;5092852;28;20450;-72
2021/12/31 08:26:05;;;;;;;2.83;2.57;;;;;;;;;;5092778;28;20404;-73
2021/12/31 08:28:31;;;;;;;3.13;2.80;;;;;;;;;;5091624;28;20419;-71
2021/12/31 08:30:58;;;;;;;3.80;3.40;;;;;;;;;;5092774;28;20516;-71
2021/12/31 08:33:24;;;;;;;5.00;3.20;;;;;;;;;;5091295;28;20778;-73
2021/12/31 08:35:50;;;;;;;5.63;2.70;;;;;;;;;;5093528;28;20466;-73
2021/12/31 08:38:16;;;;;;;4.77;3.20;;;;;;;;;;5095265;28;20801;-72
2021/12/31 08:40:42;;;;;;;3.87;3.13;;;;;;;;;;5096466;28;20423;-70
2021/12/31 08:43:08;;;;;;;3.13;2.77;;;;;;;;;;5096370;28;20404;-71
2021/12/31 08:45:35;;;;;;;4.10;2.93;;;;;;;;;;5096425;28;20798;-72
2021/12/31 08:48:01;;;;;;;5.73;2.97;;;;;;;;;;5096466;28;20457;-75
2021/12/31 08:50:28;;;;;;;3.53;3.23;;;;;;;;;;5096366;28;20418;-74
2021/12/31 08:52:54;;;;;;;6.13;3.27;;;;;;;;;;5096258;28;20387;-74
2021/12/31 08:55:20;;;;;;;6.20;3.40;;;;;;;;;;5096251;28;20515;-75
2021/12/31 08:57:46;;;;;;;3.83;3.33;;;;;;;;;;5096355;28;20449;-75
2021/12/31 09:00:12;;;;;;;6.03;3.97;;;;;;;;;;5094597;28;20459;-73
2021/12/31 09:02:39;;;;;;;4.17;3.70;;;;;;;;;;5094704;28;20453;-74
2021/12/31 09:05:06;;;;;;;4.90;4.00;;;;;;;;;;5096069;28;20485;-75
2021/12/31 09:07:32;;;;;;;3.93;3.53;;;;;;;;;;5096066;28;20477;-75
2021/12/31 09:09:58;;;;;;;5.50;4.50;;;;;;;;;;5094697;28;20602;-74
2021/12/31 09:12:24;;;;;;;5.10;3.57;;;;;;;;;;5095787;28;20894;-74
2021/12/31 09:14:50;;;;;;;5.40;4.20;;;;;;;;;;5095560;28;20869;-74
2021/12/31 09:17:16;;;;;;;5.87;4.00;;;;;;;;;;5094531;28;20404;-74
2021/12/31 09:19:42;;;;;;;8.50;4.30;;;;;;;;;;5095670;28;20495;-74
2021/12/31 09:22:09;;;;;;;7.43;4.40;;;;;;;;;;5095699;28;20957;-74
2021/12/31 09:24:35;;;;;;;7.37;4.53;;;;;;;;;;5095624;28;20408;-74
2021/12/31 09:27:01;;;;;;;4.60;4.10;;;;;;;;;;5095667;28;20412;-74
2021/12/31 09:29:27;;;;;;;5.77;4.50;;;;;;;;;;5094228;28;20423;-74
2021/12/31 09:31:54;;;;;;;5.87;4.40;;;;;;;;;;5095555;28;20943;-74
2021/12/31 09:34:20;;;;;;;6.60;4.30;;;;;;;;;;5095242;28;20428;-74
2021/12/31 09:36:46;;;;;;;5.07;4.53;;;;;;;;;;5095405;28;20415;-74
2021/12/31 09:39:12;;;;;;;5.47;4.30;;;;;;;;;;5095281;28;20403;-72
2021/12/31 09:41:38;;;;;;;6.03;4.77;;;;;;;;;;5095318;28;20412;-72
2021/12/31 09:44:04;;;;;;;5.03;4.20;;;;;;;;;;5095163;28;20446;-72
2021/12/31 09:46:30;;;;;;;5.90;4.57;;;;;;;;;;5092796;28;20412;-72
2021/12/31 09:48:56;;;;;;;5.47;4.27;;;;;;;;;;5095227;28;20763;-74
2021/12/31 09:51:23;;;;;;;6.80;4.73;;;;;;;;;;5095094;28;20404;-74
2021/12/31 09:53:51;;;;;;;6.80;4.17;;;;;;;;;;5093948;28;20451;-75
2021/12/31 09:56:17;;;;;;;6.33;3.93;;;;;;;;;;5095099;28;20459;-74
2021/12/31 09:58:43;;;;;;;5.17;4.13;;;;;;;;;;5094833;28;20452;-74
2021/12/31 10:01:09;;;;;;;7.63;4.50;;;;;;;;;;5093648;28;20424;-74
2021/12/31 10:03:37;;;;;;;5.23;3.90;;;;;;;;;;5094810;28;20490;-73
2021/12/31 10:06:08;;;;;;;4.80;4.30;;;;;;;;;;5094974;28;20411;-74
2021/12/31 10:08:40;;;;;;;9.00;5.20;;;;;;;;;;5094886;28;20400;-74
2021/12/31 10:11:17;;;;;;;5.27;3.77;;;;;;;;;;5094788;28;20934;-74
2021/12/31 10:14:05;;;;;;;6.10;4.47;;;;;;;;;;5094681;28;20422;-74
2021/12/31 10:16:33;;;;;;;8.70;4.90;;;;;;;;;;5094638;28;20463;-73
2021/12/31 10:19:06;;;;;;;4.77;4.00;;;;;;;;;;5094572;28;20918;-74
2021/12/31 10:21:41;;;;;;;6.00;4.50;;;;;;;;;;5093274;28;20499;-74
2021/12/31 10:24:22;;;;;;;5.97;4.70;;;;;;;;;;5094471;28;20404;-74
2021/12/31 10:26:58;;;;;;;4.97;4.20;;;;;;;;;;5094571;28;20448;-74
2021/12/31 10:29:24;;;;;;;9.50;5.07;;;;;;;;;;5094326;28;20406;-74
2021/12/31 10:31:51;;;;;;;6.70;5.27;;;;;;;;;;5094408;28;20400;-74
2021/12/31 10:34:27;;;;;;;6.43;4.70;;;;;;;;;;5094155;28;20412;-74
2021/12/31 10:36:53;;;;;;;7.90;4.37;;;;;;;;;;5094235;28;20450;-74
2021/12/31 10:39:21;;;;;;;5.70;4.30;;;;;;;;;;5094188;28;20404;-74
2021/12/31 10:41:51;;;;;;;6.23;4.03;;;;;;;;;;5092900;28;20412;-74
2021/12/31 10:44:17;;;;;;;6.73;3.90;;;;;;;;;;5092858;28;20412;-74
2021/12/31 10:46:43;;;;;;;4.30;3.90;;;;;;;;;;5092839;28;20440;-74
2021/12/31 10:49:11;;;;;;;4.77;3.43;;;;;;;;;;5093925;28;20447;-73
2021/12/31 10:51:40;;;;;;;6.10;4.30;;;;;;;;;;5094058;28;20408;-74
2021/12/31 10:54:31;;;;;;;4.43;3.30;;;;;;;;;;5093866;28;20434;-74
2021/12/31 10:56:58;;;;;;;4.53;3.47;;;;;;;;;;5093933;28;20749;-74
2021/12/31 10:59:24;;;;;;;4.43;3.50;;;;;;;;;;5093313;28;20447;-74
2021/12/31 11:01:50;;;;;;;3.27;2.97;;;;;;;;;;5093797;28;20404;-74
2021/12/31 11:04:18;;;;;;;5.30;4.03;;;;;;;;;;5093616;28;20477;-73
2021/12/31 11:06:45;;;;;;;3.37;3.07;;;;;;;;;;5093699;28;20407;-74
2021/12/31 11:09:13;;;;;;;3.60;3.30;;;;;;;;;;5093574;28;20889;-75
2021/12/31 11:11:41;;;;;;;5.17;3.97;;;;;;;;;;5093714;28;20404;-74
2021/12/31 11:14:07;;;;;;;3.83;3.40;;;;;;;;;;5093573;28;20423;-74
2021/12/31 11:16:38;;;;;;;4.73;4.07;;;;;;;;;;5093575;28;20949;-74
2021/12/31 11:19:04;;;;;;;3.30;3.00;;;;;;;;;;5093626;28;20436;-74
2021/12/31 11:21:30;;;;;;;3.07;2.77;;;;;;;;;;5093579;28;20429;-75
2021/12/31 11:24:16;;;;;;;3.50;3.20;;;;;;;;;;5093399;28;20762;-74
2021/12/31 11:26:42;;;;;;;3.47;3.17;;;;;;;;;;5093372;28;20404;-74
2021/12/31 11:29:15;;;;;;;3.77;2.80;;;;;;;;;;5093492;28;20772;-74
2021/12/31 11:31:42;;;;;;;3.20;2.90;;;;;;;;;;5093362;28;20851;-74
2021/12/31 11:34:10;;;;;;;5.03;3.17;;;;;;;;;;5091997;28;20443;-75
2021/12/31 11:36:48;;;;;;;3.13;2.57;;;;;;;;;;5093338;28;20482;-74
2021/12/31 11:39:14;;;;;;;3.50;3.20;;;;;;;;;;5093206;28;20498;-74
2021/12/31 11:41:41;;;;;;;2.63;2.50;;;;;;;;;;5093092;28;20492;-75
2021/12/31 11:44:09;;;;;;;3.07;2.77;;;;;;;;;;5093205;28;20499;-72
2021/12/31 11:46:40;;;;;;;3.23;2.53;;;;;;;;;;5092053;28;20419;-72
2021/12/31 11:49:11;;;;;;;2.80;2.60;;;;;;;;;;5092182;28;20424;-72
2021/12/31 11:51:39;;;;;;;3.40;2.87;;;;;;;;;;5093323;28;20457;-73
2021/12/31 11:54:06;;;;;;;3.90;2.33;;;;;;;;;;5093285;28;20411;-73
2021/12/31 11:56:35;;;;;;;2.67;2.47;;;;;;;;;;5093543;28;20911;-72
2021/12/31 11:59:10;;;;;;;3.80;2.63;;;;;;;;;;5093227;28;20508;-73
2021/12/31 12:01:52;;;;;;;2.90;2.40;;;;;;;;;;5093367;28;20411;-73
2021/12/31 12:04:19;;;;;;;2.90;2.60;;;;;;;;;;5093146;28;20411;-73
2021/12/31 12:06:52;;;;;;;2.03;1.93;;;;;;;;;;5091692;28;20424;-72
2021/12/31 12:09:18;;;;;;;2.73;2.53;;;;;;;;;;5092825;28;20461;-71
2021/12/31 12:12:00;;;;;;;2.70;2.50;;;;;;;;;;5096740;28;20403;-72
2021/12/31 12:14:40;;;;;;;2.60;2.40;;;;;;;;;;5096843;28;20902;-70
2021/12/31 12:17:07;;;;;;;13.90;4.10;;;;;;;;;;5097075;28;20514;-74
2021/12/31 12:19:51;;;;;;;2.40;2.20;;;;;;;;;;5096901;28;20948;-73
2021/12/31 12:22:33;;;;;;;2.30;2.20;;;;;;;;;;5096957;28;20416;-73
2021/12/31 12:25:01;;;;;;;1.97;1.80;;;;;;;;;;5096813;28;20499;-73
2021/12/31 12:27:27;;;;;;;3.53;2.93;;;;;;;;;;5096580;28;20396;-74
2021/12/31 12:29:54;;;;;;;3.30;3.00;;;;;;;;;;5096722;28;20438;-70
2021/12/31 12:32:52;;;;;;;2.77;2.57;;;;;;;;;;5096672;28;20912;-73
2021/12/31 12:35:22;;;;;;;2.33;2.10;;;;;;;;;;5095299;28;20475;-74
2021/12/31 12:37:57;;;;;;;3.20;2.90;;;;;;;;;;5096645;28;20404;-75
2021/12/31 12:40:35;;;;;;;3.70;2.83;;;;;;;;;;5095529;28;20507;-79
2021/12/31 12:43:01;;;;;;;3.57;3.27;;;;;;;;;;5096642;28;20867;-76
2021/12/31 12:45:28;;;;;;;2.33;2.17;;;;;;;;;;5096656;28;20407;-78
2021/12/31 12:47:54;;;;;;;3.10;2.77;;;;;;;;;;5096570;28;20392;-81
2021/12/31 12:50:20;;;;;;;2.63;2.40;;;;;;;;;;5096451;28;20494;-75
2021/12/31 12:52:55;;;;;;;2.70;2.40;;;;;;;;;;5096307;28;20403;-76
2021/12/31 12:55:21;;;;;;;2.37;2.17;;;;;;;;;;5095045;28;20833;-75
2021/12/31 12:57:53;;;;;;;2.60;2.17;;;;;;;;;;5094922;28;21103;-76
2021/12/31 13:00:30;;;;;;;2.50;2.30;;;;;;;;;;5096049;28;20420;-75
2021/12/31 13:03:03;;;;;;;2.07;1.90;;;;;;;;;;5096245;28;20407;-75
2021/12/31 13:05:29;;;;;;;2.43;2.23;;;;;;;;;;5094821;28;21003;-76
2021/12/31 13:07:55;;;;;;;4.00;2.10;;;;;;;;;;5096016;28;20408;-74
2021/12/31 13:10:25;;;;;;;2.70;2.40;;;;;;;;;;5095981;28;20494;-76
2021/12/31 13:12:51;;;;;;;2.63;2.43;;;;;;;;;;5095849;28;20400;-74
2021/12/31 13:15:17;;;;;;;2.20;2.10;;;;;;;;;;5095701;28;20478;-75
2021/12/31 13:17:59;;;;;;;5.07;3.17;;;;;;;;;;5095943;28;20407;-79
2021/12/31 13:20:26;;;;;;;3.80;2.90;;;;;;;;;;5095712;28;20392;-77
2021/12/31 13:23:00;;;;;;;3.50;3.23;;;;;;;;;;5095902;28;20403;-78
2021/12/31 13:25:41;;;;;;;3.10;2.80;;;;;;;;;;5095880;28;20449;-78
2021/12/31 13:28:14;;;;;;;2.40;2.20;;;;;;;;;;5095817;28;20518;-78
2021/12/31 13:30:52;;;;;;;5.53;3.10;;;;;;;;;;5095511;28;20399;-78
2021/12/31 13:33:23;;;;;;;2.67;2.47;;;;;;;;;;5095413;28;20407;-78
2021/12/31 13:36:07;;;;;;;3.53;2.93;;;;;;;;;;5095423;28;20475;-79
2021/12/31 13:38:53;;;;;;;2.83;2.53;;;;;;;;;;5094037;28;20812;-79
2021/12/31 13:41:23;;;;;;;3.17;2.67;;;;;;;;;;5095200;28;20411;-77
2021/12/31 13:43:55;;;;;;;3.10;2.77;;;;;;;;;;5095339;28;20453;-79
2021/12/31 13:46:28;;;;;;;3.10;2.80;;;;;;;;;;5095102;28;20411;-76
2021/12/31 13:49:02;;;;;;;3.17;2.90;;;;;;;;;;5095065;28;20950;-77
2021/12/31 13:51:30;;;;;;;4.50;3.23;;;;;;;;;;5095158;28;20454;-77
2021/12/31 13:53:56;;;;;;;3.20;2.70;;;;;;;;;;5093903;28;20388;-77
2021/12/31 13:56:35;;;;;;;4.53;2.90;;;;;;;;;;5094875;28;20462;-78
2021/12/31 13:59:25;;;;;;;2.50;2.30;;;;;;;;;;5094719;28;20508;-77
2021/12/31 14:02:26;;;;;;;3.27;3.07;;;;;;;;;;5080947;28;20432;-78
2021/12/31 14:04:58;;;;;;;4.17;3.10;;;;;;;;;;5012745;28;20821;-73
2021/12/31 14:07:43;;;;;;;3.43;3.13;;;;;;;;;;5094203;28;20416;-77
2021/12/31 14:10:10;;;;;;;3.70;2.87;;;;;;;;;;5093434;28;20451;-78
2021/12/31 14:12:44;;;;;;;3.30;2.70;;;;;;;;;;5094512;28;20415;-78
2021/12/31 14:15:10;;;;;;;4.20;3.47;;;;;;;;;;5093265;28;20462;-78
2021/12/31 14:17:36;;;;;;;2.50;2.30;;;;;;;;;;5093355;28;20427;-78
2021/12/31 14:20:02;;;;;;;2.87;2.57;;;;;;;;;;5094498;28;20453;-77
2021/12/31 14:22:28;;;;;;;6.73;3.33;;;;;;;;;;5094454;28;20906;-77
2021/12/31 14:24:55;;;;;;;4.07;3.67;;;;;;;;;;5094540;28;20409;-78
2021/12/31 14:27:21;;;;;;;4.93;3.53;;;;;;;;;;5094490;28;20436;-78
2021/12/31 14:29:47;;;;;;;3.17;2.90;;;;;;;;;;5094376;28;20491;-78
2021/12/31 14:32:13;;;;;;;3.57;3.30;;;;;;;;;;5094156;28;20408;-78
2021/12/31 14:34:39;;;;;;;4.57;3.30;;;;;;;;;;5092494;28;20428;-77
2021/12/31 14:37:08;;;;;;;4.90;3.80;;;;;;;;;;5093005;28;20419;-77
2021/12/31 14:39:37;;;;;;;4.07;3.60;;;;;;;;;;5094209;28;20784;-76
2021/12/31 14:42:03;;;;;;;6.93;3.80;;;;;;;;;;5094251;28;20749;-76
2021/12/31 14:44:29;;;;;;;4.47;4.10;;;;;;;;;;5094220;28;20399;-77
2021/12/31 14:46:56;;;;;;;6.63;4.03;;;;;;;;;;5092764;28;20454;-78
2021/12/31 14:49:22;;;;;;;5.00;4.60;;;;;;;;;;5094016;28;20794;-77
2021/12/31 14:51:49;;;;;;;3.87;3.47;;;;;;;;;;5094036;28;20404;-77
2021/12/31 14:54:15;;;;;;;5.40;4.37;;;;;;;;;;5092587;28;20475;-78